Time;durP1;ratioP1;P1;durP2;ratioP2;P2;SDS_P1;SDS_P2;PMS_P1;PMS_P2;Temp;Humidity;BMP_temperature;BMP_pressure;BME280_temperature;BME280_humidity;BME280_pressure;Samples;Min_cycle;Max_cycle;Signal;HPM_P1;HPM_P2
2023/12/03 07:01:31;;;;;;;2.73;2.53;;;1.20;99.90;3.90;101571.00;;;;6068746;22;4388645;-68
2023/12/03 07:03:57;;;;;;;1.27;1.23;;;1.30;99.90;3.80;101614.00;;;;6275801;22;20290;-68
2023/12/03 07:06:32;;;;;;;1.60;1.37;;;1.30;99.90;3.50;101618.00;;;;6250311;22;20167;-68
2023/12/03 07:09:06;;;;;;;1.13;0.90;;;1.20;99.90;2.90;101569.00;;;;6275380;22;20231;-68
2023/12/03 07:11:42;;;;;;;1.43;1.07;;;1.10;99.90;3.60;101614.00;;;;6276600;22;20210;-68
2023/12/03 07:14:14;;;;;;;2.03;1.93;;;1.10;99.90;3.50;101625.00;;;;6277139;22;20145;-67
2023/12/03 07:16:46;;;;;;;3.70;1.60;;;1.20;99.90;3.50;101561.00;;;;6251490;22;20227;-68
2023/12/03 07:19:20;;;;;;;2.23;1.77;;;1.20;99.90;3.20;101631.00;;;;6250096;22;20153;-67
2023/12/03 07:21:51;;;;;;;2.27;2.07;;;1.20;99.90;3.30;101617.00;;;;6276595;22;20141;-68
2023/12/03 07:24:25;;;;;;;1.83;1.73;;;1.30;99.90;3.30;101617.00;;;;6276748;22;20593;-68
2023/12/03 07:26:59;;;;;;;2.43;1.33;;;1.20;99.90;3.60;101619.00;;;;6275018;22;20160;-67
2023/12/03 07:29:25;;;;;;;4.87;3.63;;;1.30;99.90;3.40;101622.00;;;;6276576;22;20152;-67
2023/12/03 07:32:05;;;;;;;2.83;1.60;;;1.30;99.90;3.40;101617.00;;;;6274594;22;20177;-68
2023/12/03 07:34:37;;;;;;;0.20;0.20;;;1.20;99.90;3.80;101620.00;;;;6277028;22;20145;-67
2023/12/03 07:37:12;;;;;;;1.60;1.40;;;1.40;99.90;3.60;101570.00;;;;6249080;22;20164;-68
2023/12/03 07:39:47;;;;;;;7.10;3.73;;;1.40;99.90;3.10;101630.00;;;;6276829;22;20137;-67
2023/12/03 07:42:18;;;;;;;1.87;1.70;;;1.40;99.90;3.40;101627.00;;;;6251467;22;20253;-68
2023/12/03 07:44:50;;;;;;;7.60;1.83;;;1.30;99.90;3.50;101618.00;;;;6278602;22;20531;-68
2023/12/03 07:47:24;;;;;;;0.80;0.80;;;1.30;99.90;3.50;101646.00;;;;6276840;22;20193;-68
2023/12/03 07:50:03;;;;;;;4.53;3.83;;;1.40;99.90;3.90;101635.00;;;;6276385;22;20179;-69
2023/12/03 07:52:40;;;;;;;2.83;2.23;;;1.50;99.90;3.00;101632.00;;;;6275559;22;20184;-68
2023/12/03 07:55:17;;;;;;;0.93;0.93;;;1.40;99.90;3.60;101631.00;;;;6276552;22;20179;-69
2023/12/03 07:57:53;;;;;;;3.57;2.73;;;1.40;99.90;3.30;101639.00;;;;6275173;22;20144;-68
2023/12/03 08:00:34;;;;;;;7.40;3.13;;;1.40;99.90;3.70;101604.00;;;;6276427;22;20168;-69
2023/12/03 08:03:06;;;;;;;5.30;3.53;;;1.40;99.90;3.20;101647.00;;;;6251517;22;20612;-69
2023/12/03 08:05:37;;;;;;;2.53;2.33;;;1.40;99.90;3.40;101631.00;;;;6275886;22;20137;-69
2023/12/03 08:08:09;;;;;;;7.07;5.77;;;1.40;99.90;3.70;101650.00;;;;6276176;22;20148;-69
2023/12/03 08:10:41;;;;;;;5.47;4.93;;;1.50;99.90;3.30;101641.00;;;;6249184;22;20244;-68
2023/12/03 08:13:15;;;;;;;4.40;3.17;;;1.50;99.90;3.40;101638.00;;;;6249502;22;20180;-68
2023/12/03 08:15:44;;;;;;;3.03;2.20;;;1.50;99.90;3.20;101650.00;;;;6276184;22;20219;-68
2023/12/03 08:18:18;;;;;;;3.00;2.00;;;1.50;99.90;3.20;101637.00;;;;6277819;22;20152;-68
2023/12/03 08:20:55;;;;;;;2.77;2.57;;;1.50;99.90;3.50;101653.00;;;;6277004;22;20164;-68
2023/12/03 08:23:30;;;;;;;3.37;2.27;;;1.50;99.90;4.00;101653.00;;;;6274924;22;20148;-69
2023/12/03 08:26:12;;;;;;;1.47;1.37;;;1.60;99.90;4.00;101661.00;;;;6275539;22;20592;-69
2023/12/03 08:28:46;;;;;;;7.43;5.10;;;1.70;99.90;3.60;101663.00;;;;6276446;22;20188;-69
2023/12/03 08:31:12;;;;;;;1.53;1.43;;;1.70;99.90;3.70;101646.00;;;;6277410;22;20164;-69
2023/12/03 08:33:46;;;;;;;7.80;3.87;;;1.70;99.90;3.30;101659.00;;;;6275754;22;20255;-69
2023/12/03 08:36:21;;;;;;;1.17;1.07;;;1.70;99.90;3.90;101669.00;;;;6277586;22;20624;-68
2023/12/03 08:38:50;;;;;;;3.00;2.20;;;1.80;99.90;3.60;101667.00;;;;6249169;22;20160;-69
2023/12/03 08:41:44;;;;;;;4.33;3.87;;;1.70;99.90;3.50;101669.00;;;;6276182;22;20161;-68
2023/12/03 08:45:05;;;;;;;3.80;3.03;;;1.70;99.90;3.90;101630.00;;;;6275055;22;20153;-68
2023/12/03 08:48:24;;;;;;;2.37;1.90;;;1.70;99.90;3.70;101673.00;;;;6277728;22;20175;-68
2023/12/03 08:51:42;;;;;;;1.30;1.20;;;1.80;99.90;3.70;101657.00;;;;6275246;22;20647;-68
2023/12/03 08:54:35;;;;;;;3.20;2.20;;;1.70;99.90;3.90;101657.00;;;;6250011;22;20191;-68
2023/12/03 08:57:41;;;;;;;5.27;3.23;;;1.70;99.90;3.60;101658.00;;;;6250568;22;20156;-68
2023/12/03 09:01:02;;;;;;;2.00;1.83;;;1.80;99.90;3.70;101655.00;;;;6250760;22;20180;-68
2023/12/03 09:04:26;;;;;;;3.83;1.93;;;1.80;99.90;3.80;101666.00;;;;6277848;22;20242;-68
2023/12/03 09:07:33;;;;;;;3.67;2.97;;;1.90;99.90;4.00;101667.00;;;;6275160;22;20593;-69
2023/12/03 09:10:34;;;;;;;4.73;3.23;;;2.00;99.90;3.70;101659.00;;;;6249270;22;20171;-68
2023/12/03 09:13:29;;;;;;;2.40;1.77;;;1.90;99.90;3.90;101608.00;;;;6250465;22;20185;-68
2023/12/03 09:16:13;;;;;;;4.90;3.97;;;1.90;99.90;3.70;101613.00;;;;6240277;22;20156;-69
2023/12/03 09:18:40;;;;;;;4.00;2.63;;;1.90;99.90;3.80;101649.00;;;;6249975;22;20164;-68
2023/12/03 09:21:13;;;;;;;2.67;1.40;;;2.00;99.90;3.80;101645.00;;;;6275395;22;20213;-68
2023/12/03 09:23:43;;;;;;;3.77;2.77;;;2.00;99.90;4.30;101652.00;;;;6274436;22;20161;-68
2023/12/03 09:26:13;;;;;;;10.00;2.87;;;2.10;99.90;4.00;101598.00;;;;6249749;22;20267;-69
2023/12/03 09:28:39;;;;;;;4.20;3.87;;;2.10;99.90;3.80;101648.00;;;;6249871;22;20530;-69
2023/12/03 09:31:08;;;;;;;8.33;4.40;;;2.00;99.90;4.20;101647.00;;;;6275646;22;20149;-68
2023/12/03 09:33:37;;;;;;;1.40;1.07;;;2.10;99.90;4.70;101605.00;;;;6275895;22;20168;-69
2023/12/03 09:36:07;;;;;;;2.80;2.53;;;2.30;99.90;4.60;101649.00;;;;6275832;22;20145;-69
2023/12/03 09:38:35;;;;;;;5.97;5.17;;;2.30;99.90;5.00;101654.00;;;;6250352;22;20171;-69
2023/12/03 09:41:08;;;;;;;3.27;2.97;;;2.50;99.90;4.70;101653.00;;;;6250156;22;20165;-69
2023/12/03 09:43:40;;;;;;;6.87;3.70;;;2.40;99.90;4.50;101655.00;;;;6250049;22;20481;-69
2023/12/03 09:46:15;;;;;;;1.07;1.07;;;2.50;99.90;4.80;101655.00;;;;6249632;22;20223;-69
2023/12/03 09:48:44;;;;;;;2.53;1.80;;;2.50;99.90;4.60;101605.00;;;;6250036;22;20527;-69
2023/12/03 09:51:18;;;;;;;3.57;2.80;;;2.50;99.90;4.60;101653.00;;;;6275070;22;20134;-69
2023/12/03 09:53:46;;;;;;;4.73;2.40;;;2.50;99.90;4.70;101647.00;;;;6275263;22;20167;-69
2023/12/03 09:56:13;;;;;;;2.80;2.53;;;2.50;99.90;4.30;101674.00;;;;6249935;22;20157;-69
2023/12/03 09:58:42;;;;;;;3.03;2.40;;;2.50;99.90;4.90;101660.00;;;;6275667;22;20141;-69
2023/12/03 10:01:08;;;;;;;1.87;1.77;;;2.60;99.90;4.70;101646.00;;;;6249746;22;20173;-69
2023/12/03 10:03:37;;;;;;;3.03;1.63;;;2.60;99.90;4.90;101659.00;;;;6250096;22;20589;-69
2023/12/03 10:06:04;;;;;;;1.80;1.60;;;2.70;99.90;5.20;101665.00;;;;6276982;22;20168;-69
2023/12/03 10:08:35;;;;;;;5.97;2.93;;;2.80;99.90;4.80;101645.00;;;;6249864;22;20167;-69
2023/12/03 10:11:06;;;;;;;4.47;2.93;;;2.90;99.90;4.80;101669.00;;;;6249547;22;20223;-69
2023/12/03 10:13:34;;;;;;;3.03;1.87;;;2.90;99.90;5.40;101672.00;;;;6250307;22;20177;-69
2023/12/03 10:16:00;;;;;;;1.37;1.27;;;3.00;99.90;5.60;101661.00;;;;6275277;22;20137;-69
2023/12/03 10:18:32;;;;;;;1.97;1.80;;;3.20;99.90;5.40;101668.00;;;;6275114;22;20157;-69
2023/12/03 10:33:33;;;;;;;9.10;3.77;;;2.30;99.90;4.60;101628.00;;;;5110778;27;20548;-69
2023/12/03 10:36:13;;;;;;;2.00;1.73;;;2.50;99.90;4.80;101623.00;;;;5106053;28;20272;-69
2023/12/03 10:38:44;;;;;;;6.20;4.43;;;2.90;99.90;4.90;101641.00;;;;5100295;28;20562;-69
2023/12/03 10:41:16;;;;;;;2.93;1.40;;;3.00;99.90;4.80;101641.00;;;;5082537;28;20546;-69
2023/12/03 10:43:43;;;;;;;5.57;1.93;;;3.00;99.90;4.80;101631.00;;;;5086478;28;20197;-70
2023/12/03 10:46:11;;;;;;;5.93;3.10;;;3.00;99.90;4.30;101642.00;;;;5089223;28;20212;-69
2023/12/03 10:48:38;;;;;;;5.67;3.37;;;3.00;99.90;4.40;101601.00;;;;5100298;28;20196;-69
2023/12/03 10:51:11;;;;;;;3.50;2.57;;;2.90;99.90;4.60;101638.00;;;;5102426;28;20539;-69
2023/12/03 10:53:40;;;;;;;5.97;3.47;;;2.90;99.90;4.90;101600.00;;;;5105419;28;20204;-69
2023/12/03 10:56:11;;;;;;;4.13;2.30;;;3.10;99.90;5.40;101632.00;;;;5102076;28;20250;-69
2023/12/03 10:58:43;;;;;;;4.27;2.30;;;3.30;99.90;5.00;101609.00;;;;5106247;28;20186;-69
2023/12/03 11:01:24;;;;;;;7.10;4.00;;;3.20;99.90;4.80;101643.00;;;;5088442;28;20284;-69
2023/12/03 11:04:04;;;;;;;7.47;4.43;;;3.10;99.90;4.30;101642.00;;;;5101194;28;20191;-69
2023/12/03 11:06:36;;;;;;;5.30;2.70;;;2.90;99.90;4.70;101634.00;;;;5079183;28;20544;-69
2023/12/03 11:09:07;;;;;;;3.23;2.63;;;2.90;99.90;4.70;101625.00;;;;5097586;28;20635;-68
2023/12/03 11:11:45;;;;;;;7.00;5.30;;;2.90;99.90;4.40;101632.00;;;;5095608;28;20213;-69
2023/12/03 11:14:12;;;;;;;4.90;3.63;;;2.90;99.90;4.20;101613.00;;;;5083455;28;20181;-69
2023/12/03 11:17:23;;;;;;;3.03;1.20;;;2.80;99.90;4.70;101604.00;;;;5105808;28;20189;-69
2023/12/03 11:19:53;;;;;;;2.60;1.70;;;2.80;99.90;4.40;101601.00;;;;5088561;28;20599;-69
2023/12/03 11:22:37;;;;;;;7.60;4.10;;;2.80;99.90;4.60;101613.00;;;;5101853;28;20536;-69
2023/12/03 11:25:11;;;;;;;5.17;4.67;;;2.90;99.90;4.80;101590.00;;;;5071904;28;20219;-69
2023/12/03 11:27:49;;;;;;;7.10;4.30;;;2.90;99.90;4.40;101595.00;;;;5104844;28;20177;-69
2023/12/03 11:30:42;;;;;;;5.63;2.40;;;2.80;99.90;4.50;101600.00;;;;5086731;28;20594;-69
2023/12/03 11:33:13;;;;;;;3.37;3.07;;;2.90;99.90;5.10;101588.00;;;;5099536;28;20220;-69
2023/12/03 11:35:45;;;;;;;2.90;2.67;;;3.00;99.90;4.80;101583.00;;;;5090010;28;20567;-69
2023/12/03 11:38:25;;;;;;;0.83;0.83;;;2.90;99.90;5.30;101588.00;;;;5105363;28;20227;-69
2023/12/03 11:40:52;;;;;;;5.50;2.63;;;3.10;99.90;5.00;101597.00;;;;5089309;28;20538;-69
2023/12/03 11:43:30;;;;;;;3.40;2.73;;;3.10;99.90;4.50;101571.00;;;;5099441;28;20549;-69
2023/12/03 11:46:11;;;;;;;4.37;2.67;;;3.00;99.90;5.10;101571.00;;;;5076463;28;20701;-71
2023/12/03 11:48:54;;;;;;;2.17;2.00;;;3.00;99.90;4.80;101577.00;;;;5075119;28;20180;-68
2023/12/03 11:51:37;;;;;;;1.77;1.50;;;3.00;99.90;4.60;101560.00;;;;5081961;28;20225;-67
2023/12/03 11:54:47;;;;;;;1.83;1.63;;;3.00;99.90;4.80;101557.00;;;;5070996;28;20188;-67
2023/12/03 11:57:35;;;;;;;2.47;1.47;;;3.00;99.90;5.00;101564.00;;;;4973312;28;20195;-67
2023/12/03 12:00:29;;;;;;;6.00;3.23;;;3.10;99.90;4.50;101518.00;;;;4999155;28;20814;-68
2023/12/03 12:02:59;;;;;;;4.47;2.93;;;3.00;99.90;4.60;101553.00;;;;5075134;28;20333;-67
2023/12/03 12:08:27;;;;;;;2.83;2.10;;;2.90;99.90;4.60;101498.00;;;;5073979;28;20196;-68
2023/12/03 12:11:22;;;;;;;7.93;3.03;;;2.90;99.90;4.70;101527.00;;;;5090697;28;20205;-68
2023/12/03 12:13:58;;;;;;;4.67;2.67;;;2.90;99.90;4.70;101527.00;;;;5062974;28;20197;-68
2023/12/03 12:16:58;;;;;;;0.87;0.83;;;2.90;99.90;5.40;101543.00;;;;5073879;28;20607;-71
2023/12/03 12:20:29;;;;;;;1.47;0.97;;;3.10;99.90;4.90;101526.00;;;;5048867;28;20289;-67
2023/12/03 12:23:15;;;;;;;3.80;2.47;;;3.00;99.90;4.80;101535.00;;;;5066926;28;20276;-67
2023/12/03 12:26:14;;;;;;;1.80;1.27;;;3.00;99.90;5.60;101494.00;;;;5078358;28;20181;-67
2023/12/03 12:28:41;;;;;;;4.55;3.20;;;3.30;99.90;4.70;101526.00;;;;5073160;28;20931;-67
2023/12/03 12:31:13;;;;;;;4.10;2.80;;;3.20;99.90;5.50;101496.00;;;;5073440;28;20191;-68
2023/12/03 12:33:47;;;;;;;4.07;2.70;;;3.20;99.90;4.60;101451.00;;;;5082262;28;20185;-68
2023/12/03 12:36:25;;;;;;;3.23;1.83;;;3.00;99.90;4.90;101490.00;;;;5090595;28;20181;-67
2023/12/03 12:39:00;;;;;;;5.20;3.50;;;3.00;99.90;5.10;101465.00;;;;5070431;28;20229;-67
2023/12/03 12:41:50;;;;;;;4.43;3.20;;;3.10;99.90;5.20;101492.00;;;;5085768;28;20579;-67
2023/12/03 12:44:41;;;;;;;4.80;4.13;;;3.20;99.90;4.70;101479.00;;;;5073246;28;20553;-67
2023/12/03 12:47:11;;;;;;;5.57;3.53;;;3.10;99.90;4.50;101474.00;;;;5074594;28;20213;-67
2023/12/03 12:49:54;;;;;;;4.57;2.73;;;3.00;99.90;5.00;101448.00;;;;5073433;28;20202;-67
2023/12/03 12:52:27;;;;;;;9.23;4.97;;;3.10;99.90;4.00;101484.00;;;;5076019;28;20534;-67
2023/12/03 12:55:37;;;;;;;2.57;2.07;;;2.80;99.90;4.30;101481.00;;;;5075709;28;20224;-67
2023/12/03 12:58:45;;;;;;;3.87;3.30;;;2.80;99.90;4.40;101467.00;;;;5082190;28;20696;-67
2023/12/03 13:01:13;;;;;;;2.67;1.97;;;2.80;99.90;4.50;101460.00;;;;5030607;28;20213;-67
2023/12/03 13:03:42;;;;;;;3.63;2.63;;;2.80;99.90;4.50;101454.00;;;;5064438;28;20193;-68
2023/12/03 13:06:12;;;;;;;9.07;4.07;;;2.80;99.90;4.60;101454.00;;;;5056565;28;20173;-67
2023/12/03 13:08:43;;;;;;;4.37;3.00;;;2.90;99.90;4.60;101448.00;;;;5074504;28;20185;-67
2023/12/03 13:11:13;;;;;;;4.07;3.70;;;2.90;99.90;4.70;101435.00;;;;5074031;28;20234;-67
2023/12/03 13:13:45;;;;;;;4.53;4.10;;;2.90;99.90;4.50;101442.00;;;;5056242;28;20195;-67
2023/12/03 13:16:14;;;;;;;3.80;3.27;;;3.00;99.90;4.70;101428.00;;;;5072831;28;20275;-68
2023/12/03 13:18:40;;;;;;;4.03;2.30;;;2.90;99.90;5.00;101391.00;;;;5066780;28;20182;-68
2023/12/03 13:21:06;;;;;;;2.20;1.50;;;3.00;99.90;4.50;101417.00;;;;5066712;28;20193;-68
2023/12/03 13:23:56;;;;;;;;;;;;;;;;;;;;;
2023/12/03 13:26:25;;;;;;;1.03;0.87;;;2.90;99.90;5.00;101423.00;;;;5078179;28;20196;-68
2023/12/03 13:28:53;;;;;;;4.87;2.80;;;2.90;99.90;4.40;101382.00;;;;5055246;28;20276;-67
2023/12/03 13:31:19;;;;;;;7.77;3.87;;;2.90;99.90;4.50;101380.00;;;;5086292;28;20208;-67
2023/12/03 13:33:50;;;;;;;1.30;1.17;;;2.90;99.90;5.10;101409.00;;;;5073636;28;20647;-67
2023/12/03 13:36:21;;;;;;;5.77;2.57;;;3.00;99.90;5.00;101423.00;;;;5069627;28;20663;-67
2023/12/03 13:39:05;;;;;;;4.70;4.27;;;3.00;99.90;4.50;101414.00;;;;5069738;28;20361;-68
2023/12/03 13:41:31;;;;;;;9.47;4.17;;;2.90;99.90;4.30;101414.00;;;;5069722;28;20193;-69
2023/12/03 13:43:58;;;;;;;0.50;0.50;;;2.80;99.90;4.50;101393.00;;;;5071319;28;20200;-67
2023/12/03 13:46:27;;;;;;;4.47;2.77;;;2.70;99.90;4.60;101393.00;;;;5083554;28;20185;-67
2023/12/03 13:48:59;;;;;;;6.60;3.87;;;2.80;99.90;4.30;101403.00;;;;5076599;28;20199;-67
2023/12/03 13:51:37;;;;;;;4.77;2.47;;;2.70;99.90;4.80;101400.00;;;;5072321;28;20243;-68
2023/12/03 13:54:08;;;;;;;3.60;2.63;;;2.80;99.90;4.40;101396.00;;;;5070986;28;20242;-67
2023/12/03 13:56:34;;;;;;;5.57;3.87;;;2.80;99.90;4.70;101394.00;;;;5088718;28;20220;-68
2023/12/03 13:59:00;;;;;;;4.13;2.53;;;2.90;99.90;4.70;101388.00;;;;5088755;28;20577;-67
2023/12/03 14:01:26;;;;;;;4.43;3.90;;;2.90;99.90;5.00;101392.00;;;;5071985;28;20264;-68
2023/12/03 14:03:55;;;;;;;1.27;1.23;;;3.00;99.90;4.90;101388.00;;;;5054708;28;20636;-68
2023/12/03 14:06:27;;;;;;;5.50;4.43;;;2.90;99.90;4.40;101389.00;;;;5054470;28;20181;-68
2023/12/03 14:08:55;;;;;;;3.43;1.50;;;2.80;99.90;4.30;101361.00;;;;5074018;28;20215;-67
2023/12/03 14:11:30;;;;;;;11.67;2.17;;;2.80;99.90;3.90;101369.00;;;;5075633;28;20181;-68
2023/12/03 14:13:56;;;;;;;0.40;0.40;;;2.60;99.90;4.60;101359.00;;;;5071567;28;20193;-67
2023/12/03 14:16:22;;;;;;;4.97;3.23;;;2.70;99.90;5.20;101359.00;;;;5067815;28;20226;-68
2023/12/03 14:18:48;;;;;;;3.93;2.07;;;2.80;99.90;4.80;101371.00;;;;5070789;28;20220;-68
2023/12/03 14:21:18;;;;;;;3.23;2.87;;;2.90;99.90;4.70;101369.00;;;;5070440;28;20276;-69
2023/12/03 14:23:49;;;;;;;2.53;2.13;;;2.80;99.90;4.30;101352.00;;;;5048203;28;20551;-68
2023/12/03 14:26:15;;;;;;;5.77;3.67;;;2.70;99.90;4.60;101343.00;;;;5068541;28;20178;-67
2023/12/03 14:28:41;;;;;;;5.33;3.90;;;2.70;99.90;4.30;101346.00;;;;5071713;28;20181;-67
2023/12/03 14:31:07;;;;;;;2.57;2.37;;;2.60;99.90;4.40;101340.00;;;;5070707;28;20190;-68
2023/12/03 14:33:33;;;;;;;3.70;1.57;;;2.60;99.90;4.50;101336.00;;;;5072779;28;20247;-67
2023/12/03 14:35:59;;;;;;;9.93;4.37;;;2.60;99.90;4.80;101337.00;;;;5061204;28;20525;-68
2023/12/03 14:38:28;;;;;;;6.03;2.23;;;2.70;99.90;4.70;101337.00;;;;5071494;28;20636;-68
2023/12/03 14:40:57;;;;;;;1.53;0.90;;;2.70;99.90;4.70;101340.00;;;;5068230;28;20681;-67
2023/12/03 14:43:23;;;;;;;4.27;3.77;;;2.80;99.90;5.40;101339.00;;;;5062328;28;20190;-67
2023/12/03 14:45:49;;;;;;;6.83;3.10;;;2.90;99.90;5.00;101300.00;;;;5051968;28;20200;-67
2023/12/03 14:48:15;;;;;;;10.70;5.30;;;2.90;99.90;4.80;101331.00;;;;5071417;28;20192;-67
2023/12/03 14:50:41;;;;;;;5.10;4.03;;;2.90;99.90;4.60;101300.00;;;;5071396;28;20181;-67
2023/12/03 14:53:07;;;;;;;8.03;4.40;;;2.80;99.90;4.70;101319.00;;;;5071620;28;20224;-67
2023/12/03 14:55:36;;;;;;;4.13;3.07;;;2.70;99.90;4.50;101328.00;;;;5066732;28;20182;-67
2023/12/03 14:58:02;;;;;;;3.97;2.70;;;2.80;99.90;4.80;101323.00;;;;5069315;28;20194;-68
2023/12/03 15:00:28;;;;;;;9.40;3.50;;;2.80;99.90;4.90;101320.00;;;;5071464;28;20216;-68
2023/12/03 15:02:58;;;;;;;0.60;0.60;;;2.90;99.90;4.70;101288.00;;;;5052102;28;20236;-68
2023/12/03 15:05:24;;;;;;;2.87;2.63;;;2.80;99.90;4.80;101319.00;;;;5052097;28;20184;-67
2023/12/03 15:07:50;;;;;;;10.57;4.53;;;2.80;99.90;4.90;101322.00;;;;5070524;28;20231;-68
2023/12/03 15:10:17;;;;;;;6.60;4.20;;;2.80;99.90;4.20;101312.00;;;;5070923;28;20181;-68
2023/12/03 15:12:50;;;;;;;4.83;4.00;;;2.70;99.90;4.50;101306.00;;;;5060479;28;20581;-67
2023/12/03 15:15:19;;;;;;;2.50;2.30;;;2.70;99.90;4.10;101312.00;;;;5071312;28;20264;-67
2023/12/03 15:17:49;;;;;;;4.40;2.90;;;2.60;99.90;4.00;101308.00;;;;5070683;28;20269;-67
2023/12/03 15:20:36;;;;;;;6.70;3.93;;;2.50;99.90;4.00;101298.00;;;;5075928;28;20185;-67
2023/12/03 15:23:11;;;;;;;1.70;1.60;;;2.40;99.90;4.10;101301.00;;;;5075352;28;20189;-67
2023/12/03 15:25:37;;;;;;;2.33;2.13;;;2.40;99.90;4.00;101290.00;;;;5070419;28;20200;-67
2023/12/03 15:28:06;;;;;;;9.17;4.77;;;2.30;99.90;4.00;101255.00;;;;5074920;28;20639;-67
2023/12/03 15:30:52;;;;;;;4.07;3.60;;;2.30;99.90;4.10;101282.00;;;;5072917;28;20186;-67
2023/12/03 15:33:25;;;;;;;1.50;1.50;;;2.30;99.90;4.60;101280.00;;;;5072287;28;20304;-67
2023/12/03 15:36:17;;;;;;;7.23;3.87;;;2.40;99.90;3.80;101275.00;;;;5075040;28;20185;-67
2023/12/03 15:38:53;;;;;;;8.60;2.87;;;2.30;99.90;3.90;101277.00;;;;5066539;28;20716;-67
2023/12/03 15:41:42;;;;;;;4.07;3.60;;;2.30;99.90;4.00;101258.00;;;;5071191;28;20181;-67
2023/12/03 15:44:10;;;;;;;2.43;2.00;;;2.20;99.90;4.40;101266.00;;;;5038285;28;20208;-68
2023/12/03 15:46:42;;;;;;;6.53;5.83;;;2.30;99.90;4.30;101260.00;;;;5069526;28;20192;-67
2023/12/03 15:49:14;;;;;;;4.37;3.60;;;2.30;99.90;3.90;101262.00;;;;5065491;28;20200;-67
2023/12/03 15:51:52;;;;;;;6.90;3.77;;;2.30;99.90;3.60;101254.00;;;;5066692;28;20589;-67
2023/12/03 15:54:30;;;;;;;4.93;2.90;;;2.10;99.90;3.70;101252.00;;;;5061384;28;20632;-67
2023/12/03 15:57:00;;;;;;;3.47;2.60;;;2.10;99.90;4.00;101210.00;;;;5072158;28;20189;-68
2023/12/03 15:59:26;;;;;;;3.03;2.20;;;2.10;99.90;4.10;101239.00;;;;5073940;28;20177;-68
2023/12/03 16:01:52;;;;;;;4.57;2.87;;;2.10;99.90;3.90;101240.00;;;;5066308;28;20182;-68
2023/12/03 16:04:18;;;;;;;8.47;4.47;;;2.10;99.90;3.70;101237.00;;;;5044763;28;20186;-68
2023/12/03 16:07:07;;;;;;;3.40;3.13;;;2.10;99.90;4.20;101233.00;;;;5068094;28;20181;-67
2023/12/03 16:09:40;;;;;;;1.03;0.93;;;2.10;99.90;3.90;101233.00;;;;5027754;28;20274;-68
2023/12/03 16:12:11;;;;;;;3.50;2.27;;;2.10;99.90;3.60;101218.00;;;;5076913;28;20221;-67
2023/12/03 16:14:54;;;;;;;3.67;2.67;;;2.00;99.90;3.80;101203.00;;;;5074649;28;20597;-68
2023/12/03 16:17:31;;;;;;;3.03;2.23;;;2.00;99.90;3.70;101199.00;;;;5069823;28;20182;-68
2023/12/03 16:20:12;;;;;;;3.30;2.80;;;2.00;99.90;3.60;101198.00;;;;5057324;28;20199;-68
2023/12/03 16:22:53;;;;;;;4.33;3.97;;;2.00;99.90;3.80;101159.00;;;;5057586;28;20539;-68
2023/12/03 16:25:40;;;;;;;11.80;6.37;;;2.00;99.90;3.60;101183.00;;;;5063618;28;20635;-68
2023/12/03 16:28:08;;;;;;;4.17;3.57;;;2.00;99.90;3.50;101176.00;;;;5066512;28;20274;-68
2023/12/03 16:30:41;;;;;;;3.53;2.63;;;2.00;99.90;3.40;101126.00;;;;5072407;28;20189;-68
2023/12/03 16:33:19;;;;;;;4.67;3.93;;;2.00;99.90;3.60;101144.00;;;;5063043;28;20297;-68
2023/12/03 16:35:48;;;;;;;7.23;3.80;;;1.90;99.90;3.40;101175.00;;;;5070852;28;20742;-68
2023/12/03 16:38:28;;;;;;;2.10;1.93;;;1.90;99.90;3.60;101144.00;;;;5056217;28;20193;-68
2023/12/03 16:41:12;;;;;;;1.27;1.17;;;1.90;99.90;4.20;101178.00;;;;5072404;28;20315;-68
2023/12/03 16:43:38;;;;;;;2.53;1.10;;;2.00;99.90;4.20;101175.00;;;;5074987;28;20272;-68
2023/12/03 16:46:15;;;;;;;1.60;1.47;;;2.20;99.90;3.80;101180.00;;;;5075644;28;20193;-68
2023/12/03 16:48:55;;;;;;;2.17;2.00;;;2.10;99.90;3.90;101182.00;;;;5071752;28;20189;-68
2023/12/03 16:51:35;;;;;;;4.50;4.17;;;2.10;99.90;4.40;101177.00;;;;5075132;28;20199;-67
2023/12/03 16:54:23;;;;;;;3.23;2.83;;;2.20;99.90;4.00;101172.00;;;;5072602;28;20177;-68
2023/12/03 16:57:06;;;;;;;4.03;2.60;;;2.20;99.90;4.10;101171.00;;;;5065053;28;20229;-68
2023/12/03 16:59:38;;;;;;;4.00;3.03;;;2.20;99.90;4.00;101173.00;;;;5060803;28;20181;-68
2023/12/03 17:02:28;;;;;;;8.13;4.83;;;2.10;99.90;3.90;101157.00;;;;5082583;28;20188;-68
2023/12/03 17:05:17;;;;;;;1.87;1.77;;;2.10;99.90;3.70;101154.00;;;;5056956;28;20186;-68
2023/12/03 17:07:58;;;;;;;3.00;2.63;;;1.90;99.90;4.10;101160.00;;;;5050957;28;20643;-68
2023/12/03 17:10:31;;;;;;;3.27;1.37;;;2.10;99.90;3.80;101138.00;;;;5073859;28;20185;-68
2023/12/03 17:13:23;;;;;;;1.57;1.43;;;2.00;99.90;3.80;101136.00;;;;5069863;28;20580;-68
2023/12/03 17:15:51;;;;;;;5.17;2.77;;;2.00;99.90;3.60;101121.00;;;;5068316;28;20189;-67
2023/12/03 17:18:23;;;;;;;0.63;0.60;;;1.90;99.90;3.70;101123.00;;;;5078127;28;20190;-67
2023/12/03 17:20:57;;;;;;;1.93;1.83;;;1.90;99.90;3.90;101079.00;;;;5071442;28;20181;-68
2023/12/03 17:23:23;;;;;;;9.27;3.13;;;2.00;99.90;3.70;101116.00;;;;5076627;28;20189;-67
2023/12/03 17:25:57;;;;;;;2.87;2.63;;;2.00;99.90;3.70;101114.00;;;;5087183;28;20671;-68
2023/12/03 17:28:29;;;;;;;3.70;3.03;;;1.90;99.90;3.70;101082.00;;;;5053142;28;20272;-67
2023/12/03 17:31:01;;;;;;;1.43;0.93;;;2.00;99.90;3.70;101127.00;;;;5065204;28;20185;-68
2023/12/03 17:33:35;;;;;;;1.00;1.00;;;2.00;99.90;3.90;101135.00;;;;5055308;28;20680;-67
2023/12/03 17:36:07;;;;;;;2.50;2.30;;;2.10;99.90;3.90;101095.00;;;;5072211;28;20200;-67
2023/12/03 17:38:33;;;;;;;2.13;1.37;;;2.10;99.90;3.80;101119.00;;;;5068843;28;20186;-68
2023/12/03 17:41:02;;;;;;;2.27;1.70;;;2.10;99.90;3.80;101120.00;;;;5071179;28;20540;-67
2023/12/03 17:43:36;;;;;;;1.67;1.57;;;2.10;99.90;3.80;101127.00;;;;5067936;28;20198;-67
2023/12/03 17:46:03;;;;;;;3.13;2.17;;;2.10;99.90;3.60;101121.00;;;;5069763;28;20228;-67
2023/12/03 17:48:31;;;;;;;2.60;2.40;;;2.00;99.90;4.30;101083.00;;;;5067775;28;20221;-68
2023/12/03 17:51:00;;;;;;;6.53;3.37;;;2.20;99.90;3.90;101102.00;;;;5067980;28;20289;-67
2023/12/03 17:54:40;;;;;;;4.27;3.87;;;2.20;99.90;3.90;101122.00;;;;5076481;28;20288;-67
2023/12/03 17:57:52;;;;;;;2.83;2.63;;;2.20;99.90;3.80;101096.00;;;;5058655;28;20639;-67
2023/12/03 18:00:27;;;;;;;2.97;1.33;;;2.10;99.90;3.80;101094.00;;;;5084130;28;20578;-67
2023/12/03 18:02:53;;;;;;;2.57;1.93;;;2.10;99.90;3.90;101088.00;;;;5059777;28;20193;-67
2023/12/03 18:05:42;;;;;;;1.77;1.70;;;2.10;99.90;4.20;101086.00;;;;5070994;28;20266;-67
2023/12/03 18:08:26;;;;;;;1.70;1.37;;;2.20;99.90;4.10;101049.00;;;;5064033;28;20224;-67
2023/12/03 18:11:12;;;;;;;5.93;4.23;;;2.20;99.90;4.20;101089.00;;;;5073113;28;20181;-67
2023/12/03 18:14:06;;;;;;;7.20;2.77;;;2.30;99.90;3.90;101089.00;;;;5059771;28;20218;-67
2023/12/03 18:16:43;;;;;;;2.33;2.13;;;2.10;99.90;3.90;101074.00;;;;5055289;28;20213;-67
2023/12/03 18:19:38;;;;;;;3.00;1.47;;;2.20;99.90;3.90;101038.00;;;;5073339;28;20169;-67
2023/12/03 18:22:10;;;;;;;3.60;2.37;;;2.20;99.90;3.80;101064.00;;;;5069893;28;20209;-67
2023/12/03 18:24:42;;;;;;;4.00;3.40;;;2.10;99.90;4.30;101066.00;;;;5069017;28;20185;-67
2023/12/03 18:27:11;;;;;;;12.10;3.97;;;2.30;99.90;4.60;101063.00;;;;5071568;28;20260;-67
2023/12/03 18:29:37;;;;;;;4.73;3.63;;;2.40;99.90;4.20;101075.00;;;;5068694;28;20235;-67
2023/12/03 18:32:03;;;;;;;1.17;1.17;;;2.30;99.90;4.90;101078.00;;;;5071693;28;20209;-67
2023/12/03 18:34:42;;;;;;;4.67;1.13;;;2.50;99.90;4.60;101072.00;;;;5069277;28;20192;-67
2023/12/03 18:37:09;;;;;;;2.93;2.33;;;2.50;99.90;4.30;101068.00;;;;5070844;28;20185;-67
2023/12/03 18:39:41;;;;;;;1.23;1.13;;;2.40;99.90;4.50;101063.00;;;;5068185;28;20182;-67
2023/12/03 18:42:08;;;;;;;5.33;1.90;;;2.50;99.90;4.30;101030.00;;;;5067071;28;20190;-67
2023/12/03 18:44:39;;;;;;;2.57;1.13;;;2.40;99.90;4.30;101024.00;;;;5067347;28;20252;-67
2023/12/03 18:47:08;;;;;;;3.73;2.53;;;2.40;99.90;4.30;101062.00;;;;5071582;28;20214;-67
2023/12/03 18:49:37;;;;;;;1.50;1.47;;;2.50;99.90;4.10;101054.00;;;;5064031;28;20702;-67
2023/12/03 18:52:09;;;;;;;2.03;1.83;;;2.40;99.90;4.30;101022.00;;;;5080352;28;20201;-67
2023/12/03 18:54:55;;;;;;;1.70;1.70;;;2.40;99.90;4.40;101042.00;;;;5073161;28;20185;-67
2023/12/03 18:57:36;;;;;;;9.20;3.43;;;2.40;99.90;4.50;101052.00;;;;5074401;28;20201;-67